createdAt,value
2022-09-28T00:01:18.965Z,8.63
2022-09-28T00:03:42.223Z,7.75
2022-09-28T00:06:07.897Z,3.80
2022-09-28T00:08:31.144Z,6.05
2022-09-28T00:10:56.637Z,2.90
2022-09-28T00:13:19.959Z,4.78
2022-09-28T00:15:43.147Z,6.88
2022-09-28T00:18:06.523Z,3.08
2022-09-28T00:20:29.785Z,3.90
2022-09-28T00:22:54.399Z,5.28
2022-09-28T00:27:41.362Z,2.88
2022-09-28T00:30:05.105Z,2.28
2022-09-28T00:32:28.641Z,6.67
2022-09-28T00:34:52.003Z,4.88
2022-09-28T00:37:15.256Z,3.75
2022-09-28T00:39:41.374Z,4.07
2022-09-28T00:42:05.690Z,5.57
2022-09-28T00:44:50.164Z,9.38
2022-09-28T00:47:37.433Z,5.93
2022-09-28T00:50:02.205Z,4.28
2022-09-28T00:52:27.822Z,10.98
2022-09-28T00:54:52.407Z,4.30
2022-09-28T00:59:38.633Z,10.18
2022-09-28T01:02:02.040Z,7.18
2022-09-28T01:04:29.756Z,7.07
2022-09-28T01:06:53.326Z,4.22
2022-09-28T01:09:16.623Z,7.70
2022-09-28T01:11:42.367Z,12.02
2022-09-28T01:14:06.836Z,6.03
2022-09-28T01:16:34.186Z,6.73
2022-09-28T01:19:15.441Z,10.13
2022-09-28T01:21:42.049Z,8.05
2022-09-28T01:24:15.231Z,5.82
2022-09-28T01:26:45.115Z,5.38
2022-09-28T01:29:14.664Z,8.30
2022-09-28T01:31:38.546Z,9.85
2022-09-28T01:34:05.476Z,8.57
2022-09-28T01:36:29.301Z,11.88
2022-09-28T01:38:53.812Z,9.90
2022-09-28T01:43:44.339Z,8.63
2022-09-28T01:46:09.427Z,11.48
2022-09-28T01:48:34.642Z,8.25
2022-09-28T01:50:59.383Z,8.93
2022-09-28T01:53:23.692Z,7.93
2022-09-28T01:55:49.366Z,4.80
2022-09-28T01:58:14.986Z,5.97
2022-09-28T02:03:07.383Z,5.72
2022-09-28T02:05:40.263Z,11.20
2022-09-28T02:10:30.092Z,10.75
2022-09-28T02:12:54.587Z,4.57
2022-09-28T02:15:20.253Z,3.78
2022-09-28T02:17:44.862Z,5.70
2022-09-28T02:20:10.100Z,3.17
2022-09-28T02:22:34.975Z,4.47
2022-09-28T02:24:59.712Z,5.63
2022-09-28T02:27:30.763Z,6.38
2022-09-28T02:29:54.049Z,2.72
2022-09-28T02:32:17.314Z,9.52
2022-09-28T02:34:41.861Z,4.85
2022-09-28T02:37:05.133Z,4.40
2022-09-28T02:39:28.279Z,2.20
2022-09-28T02:41:56.317Z,2.17
2022-09-28T02:44:30.999Z,3.08
2022-09-28T02:46:56.794Z,7.63
2022-09-28T02:49:28.147Z,2.50
2022-09-28T02:52:03.199Z,3.03
2022-09-28T02:54:50.464Z,10.48
2022-09-28T02:57:19.673Z,7.93
2022-09-28T02:59:51.620Z,6.53
2022-09-28T03:02:20.904Z,9.13
2022-09-28T03:04:46.239Z,8.68
2022-09-28T03:07:18.985Z,11.20
2022-09-28T03:09:44.473Z,16.45
2022-09-28T03:12:09.982Z,18.65
2022-09-28T03:14:33.191Z,14.93
2022-09-28T03:16:56.567Z,12.38
2022-09-28T03:19:21.135Z,13.88
2022-09-28T03:24:11.163Z,6.82
2022-09-28T03:26:34.523Z,10.85
2022-09-28T03:28:58.056Z,19.60
2022-09-28T03:31:22.796Z,13.48
2022-09-28T03:33:46.608Z,9.40
2022-09-28T03:36:10.637Z,7.10
2022-09-28T03:38:34.455Z,6.38
2022-09-28T03:40:59.910Z,4.38
2022-09-28T03:43:27.200Z,6.88
2022-09-28T03:45:54.971Z,6.38
2022-09-28T03:48:23.157Z,4.40
2022-09-28T03:50:47.750Z,8.18
2022-09-28T03:53:10.954Z,12.23
2022-09-28T03:55:34.294Z,5.53
2022-09-28T03:57:58.978Z,6.20
2022-09-28T04:00:22.501Z,6.88
2022-09-28T04:02:45.694Z,9.40
2022-09-28T04:05:09.454Z,6.00
2022-09-28T04:07:34.106Z,9.52
2022-09-28T04:09:57.563Z,8.80
2022-09-28T04:12:20.765Z,17.60
2022-09-28T04:14:45.842Z,12.67
2022-09-28T04:17:09.018Z,10.98
2022-09-28T04:19:32.714Z,8.80
2022-09-28T04:22:16.326Z,9.45
2022-09-28T04:24:40.246Z,19.98
2022-09-28T04:27:17.328Z,7.25
2022-09-28T04:29:44.170Z,15.75
2022-09-28T04:32:10.361Z,17.23
2022-09-28T04:34:37.858Z,18.48
2022-09-28T04:37:01.985Z,8.35
2022-09-28T04:39:25.289Z,16.85
2022-09-28T04:41:50.704Z,17.35
2022-09-28T04:44:13.909Z,10.23
2022-09-28T04:46:37.345Z,14.75
2022-09-28T04:49:20.450Z,14.25
2022-09-28T04:51:49.745Z,10.25
2022-09-28T04:54:12.885Z,17.15
2022-09-28T04:56:36.114Z,13.30
2022-09-28T04:59:00.402Z,11.95
2022-09-28T05:01:24.877Z,31.20
2022-09-28T05:03:57.371Z,13.45
2022-09-28T05:06:34.881Z,20.85
2022-09-28T05:09:01.562Z,12.52
2022-09-28T05:11:24.908Z,35.67
2022-09-28T05:13:48.946Z,21.67
2022-09-28T05:16:14.205Z,31.15
2022-09-28T05:18:56.540Z,26.90
2022-09-28T05:21:20.179Z,36.72
2022-09-28T05:23:48.625Z,20.87
2022-09-28T05:26:12.422Z,19.15
2022-09-28T05:28:35.726Z,22.13
2022-09-28T05:31:27.183Z,11.02
2022-09-28T05:34:19.901Z,11.95
2022-09-28T05:36:45.739Z,17.05
2022-09-28T05:39:10.599Z,23.92
2022-09-28T05:41:34.048Z,25.20
2022-09-28T05:43:58.182Z,31.88
2022-09-28T05:46:22.539Z,22.80
2022-09-28T05:48:46.749Z,19.35
2022-09-28T05:51:10.231Z,22.67
2022-09-28T05:53:33.571Z,26.10
2022-09-28T05:56:00.233Z,28.63
2022-09-28T05:58:23.494Z,28.80
2022-09-28T06:00:46.725Z,22.70
2022-09-28T06:03:12.426Z,34.50
2022-09-28T06:05:36.274Z,18.95
2022-09-28T06:07:59.857Z,19.80
2022-09-28T06:10:23.432Z,23.77
2022-09-28T06:12:48.749Z,27.27
2022-09-28T06:15:13.273Z,24.65
2022-09-28T06:17:36.483Z,23.55
2022-09-28T06:20:36.690Z,20.30
2022-09-28T06:23:13.833Z,22.48
2022-09-28T06:25:37.103Z,18.67
2022-09-28T06:28:02.778Z,22.85
2022-09-28T06:30:27.242Z,28.95
2022-09-28T06:32:53.744Z,32.47
2022-09-28T06:35:17.131Z,24.33
2022-09-28T06:37:40.352Z,27.63
2022-09-28T06:40:03.777Z,25.60
2022-09-28T06:42:27.299Z,26.33
2022-09-28T06:45:11.377Z,21.40
2022-09-28T06:48:00.875Z,23.52
2022-09-28T06:50:32.606Z,11.68
2022-09-28T06:53:09.450Z,20.95
2022-09-28T06:55:49.123Z,17.73
2022-09-28T06:58:14.779Z,7.55
2022-09-28T07:00:39.699Z,18.98
2022-09-28T07:03:04.212Z,13.88
2022-09-28T07:05:48.423Z,19.23
2022-09-28T07:08:30.242Z,13.82
2022-09-28T07:11:01.419Z,12.85
2022-09-28T07:13:51.922Z,8.73
2022-09-28T07:16:24.124Z,12.30
2022-09-28T07:18:50.062Z,6.63
2022-09-28T07:21:26.207Z,15.10
2022-09-28T07:23:54.321Z,17.25
2022-09-28T07:26:23.657Z,17.77
2022-09-28T07:28:58.852Z,17.27
2022-09-28T07:31:29.748Z,8.77
2022-09-28T07:34:13.628Z,14.50
2022-09-28T07:36:59.716Z,15.90
2022-09-28T07:39:22.909Z,15.50
2022-09-28T07:41:45.087Z,7.82
2022-09-28T07:44:08.274Z,10.90
2022-09-28T07:46:34.768Z,14.32
2022-09-28T07:49:08.388Z,9.88
2022-09-28T07:51:56.510Z,14.80
2022-09-28T07:54:40.553Z,6.68
2022-09-28T07:57:29.655Z,11.75
2022-09-28T08:00:13.780Z,12.00
2022-09-28T08:02:44.674Z,15.20
2022-09-28T08:05:13.638Z,9.38
2022-09-28T08:07:38.257Z,7.63
2022-09-28T08:10:04.883Z,15.23
2022-09-28T08:12:55.169Z,8.18
2022-09-28T08:15:51.981Z,6.63
2022-09-28T08:18:24.539Z,11.00
2022-09-28T08:21:05.028Z,9.65
2022-09-28T08:23:28.270Z,11.13
2022-09-28T08:25:54.114Z,16.02
2022-09-28T08:28:18.941Z,9.68
2022-09-28T08:30:44.325Z,10.73
2022-09-28T08:33:31.706Z,12.07
2022-09-28T08:36:13.987Z,7.65
2022-09-28T08:39:12.872Z,8.45
2022-09-28T08:42:08.857Z,8.70
2022-09-28T08:45:09.260Z,6.93
2022-09-28T08:47:54.403Z,7.88
2022-09-28T08:50:32.555Z,9.00
2022-09-28T08:53:28.905Z,12.25
2022-09-28T08:56:05.925Z,5.65
2022-09-28T08:58:30.472Z,5.25
2022-09-28T09:03:22.494Z,10.23
2022-09-28T09:06:04.016Z,8.05
2022-09-28T09:08:51.736Z,5.45
2022-09-28T09:11:20.238Z,4.82
2022-09-28T09:13:53.962Z,3.30
2022-09-28T09:16:25.681Z,5.95
2022-09-28T09:19:18.357Z,3.92
2022-09-28T09:22:17.822Z,7.90
2022-09-28T09:24:43.345Z,4.43
2022-09-28T09:27:07.623Z,5.05
2022-09-28T09:29:37.213Z,6.93
2022-09-28T09:32:23.897Z,11.10
2022-09-28T09:35:08.825Z,8.18
2022-09-28T09:38:03.209Z,4.65
2022-09-28T09:41:06.247Z,3.88
2022-09-28T09:44:08.519Z,4.00
2022-09-28T09:46:53.667Z,4.30
2022-09-28T09:49:23.871Z,5.00
2022-09-28T09:51:48.883Z,5.68
2022-09-28T09:54:19.315Z,5.55
2022-09-28T09:56:44.097Z,6.43
2022-09-28T09:59:15.559Z,5.95
2022-09-28T10:01:59.056Z,3.42
2022-09-28T10:04:38.207Z,9.90
2022-09-28T10:07:10.547Z,3.03
2022-09-28T10:09:37.282Z,9.38
2022-09-28T10:12:31.146Z,19.90
2022-09-28T10:14:56.680Z,4.63
2022-09-28T10:17:27.387Z,4.93
2022-09-28T10:20:13.095Z,5.22
2022-09-28T10:22:48.619Z,5.38
2022-09-28T10:25:15.152Z,7.28
2022-09-28T10:27:41.413Z,2.38
2022-09-28T10:30:12.788Z,8.27
2022-09-28T10:32:40.124Z,5.55
2022-09-28T10:35:15.579Z,4.25
2022-09-28T10:37:48.423Z,5.53
2022-09-28T10:40:41.497Z,3.42
2022-09-28T10:43:06.295Z,3.75
2022-09-28T10:45:31.638Z,8.45
2022-09-28T10:47:55.833Z,3.70
2022-09-28T10:50:21.467Z,2.55
2022-09-28T10:52:46.767Z,8.52
2022-09-28T10:55:30.693Z,8.07
2022-09-28T10:57:55.375Z,3.50
2022-09-28T11:00:31.400Z,4.70
2022-09-28T11:03:18.954Z,2.03
2022-09-28T11:05:43.502Z,5.75
2022-09-28T11:08:08.057Z,1.88
2022-09-28T11:10:39.469Z,6.25
2022-09-28T11:13:11.927Z,2.90
2022-09-28T11:15:38.382Z,3.10
2022-09-28T11:18:19.902Z,4.50
2022-09-28T11:20:45.408Z,4.05
2022-09-28T11:23:22.836Z,9.00
2022-09-28T11:26:00.193Z,1.92
2022-09-28T11:28:26.746Z,2.83
2022-09-28T11:30:51.366Z,2.17
2022-09-28T11:33:26.813Z,9.50
2022-09-28T11:36:21.856Z,10.73
2022-09-28T11:38:47.866Z,4.28
2022-09-28T11:41:52.693Z,6.40
2022-09-28T11:44:28.170Z,2.10
2022-09-28T11:47:08.763Z,5.05
2022-09-28T11:49:34.361Z,4.75
2022-09-28T11:51:58.467Z,7.93
2022-09-28T11:54:26.206Z,5.50
2022-09-28T11:56:50.426Z,3.05
2022-09-28T12:01:45.002Z,12.02
2022-09-28T12:04:20.004Z,5.85
2022-09-28T12:06:47.119Z,4.38
2022-09-28T12:09:15.692Z,2.47
2022-09-28T12:12:07.693Z,8.93
2022-09-28T12:14:40.454Z,14.50
2022-09-28T12:17:09.692Z,5.00
2022-09-28T12:19:34.563Z,6.03
2022-09-28T12:21:58.548Z,1.70
2022-09-28T12:24:24.776Z,7.10
2022-09-28T12:26:49.855Z,2.70
2022-09-28T12:29:15.133Z,8.27
2022-09-28T12:31:39.543Z,9.75
2022-09-28T12:34:04.215Z,8.20
2022-09-28T12:36:41.855Z,2.97
2022-09-28T12:39:21.693Z,8.30
2022-09-28T12:41:55.294Z,7.25
2022-09-28T12:44:39.137Z,9.93
2022-09-28T12:47:10.619Z,5.47
2022-09-28T12:52:30.323Z,10.48
2022-09-28T12:55:19.115Z,2.97
2022-09-28T12:57:47.702Z,7.00
2022-09-28T13:00:12.396Z,11.05
2022-09-28T13:03:16.080Z,6.60
2022-09-28T13:06:06.619Z,7.93
2022-09-28T13:08:32.494Z,7.28
2022-09-28T13:11:02.229Z,7.68
2022-09-28T13:13:34.481Z,7.35
2022-09-28T13:15:58.943Z,7.65
2022-09-28T13:18:24.119Z,4.57
2022-09-28T13:21:00.320Z,9.40
2022-09-28T13:23:26.500Z,9.23
2022-09-28T13:25:53.182Z,13.20
2022-09-28T13:28:16.641Z,9.27
2022-09-28T13:30:40.320Z,8.10
2022-09-28T13:33:04.962Z,5.90
2022-09-28T13:35:28.452Z,8.27
2022-09-28T13:38:13.573Z,9.80
2022-09-28T13:43:19.740Z,7.47
2022-09-28T13:45:53.998Z,12.63
2022-09-28T13:48:17.764Z,8.45
2022-09-28T13:50:52.008Z,11.70
2022-09-28T13:53:20.258Z,10.90
2022-09-28T13:55:53.953Z,9.68
2022-09-28T13:58:20.750Z,13.25
2022-09-28T14:00:47.114Z,7.38
2022-09-28T14:03:14.970Z,7.32
2022-09-28T14:05:49.409Z,8.50
2022-09-28T14:08:34.249Z,7.90
2022-09-28T14:10:57.642Z,10.40
2022-09-28T14:13:58.295Z,9.30
2022-09-28T14:16:23.326Z,13.25
2022-09-28T14:18:46.617Z,16.00
2022-09-28T14:21:51.756Z,13.07
2022-09-28T14:24:21.139Z,13.50
2022-09-28T14:26:55.774Z,6.85
2022-09-28T14:29:28.869Z,11.80
2022-09-28T14:31:54.547Z,9.48
2022-09-28T14:34:34.423Z,8.45
2022-09-28T14:37:15.073Z,8.05
2022-09-28T14:39:55.427Z,15.20
2022-09-28T14:42:19.448Z,7.57
2022-09-28T14:45:20.007Z,11.23
2022-09-28T14:47:44.851Z,7.97
2022-09-28T14:50:22.241Z,10.68
2022-09-28T14:52:47.417Z,13.27
2022-09-28T14:55:15.472Z,12.32
2022-09-28T14:57:38.631Z,12.20
2022-09-28T15:00:02.210Z,5.65
2022-09-28T15:02:26.518Z,6.38
2022-09-28T15:04:52.914Z,10.38
2022-09-28T15:07:24.038Z,11.32
2022-09-28T15:09:49.635Z,8.55
2022-09-28T15:12:15.822Z,12.52
2022-09-28T15:14:42.944Z,11.48
2022-09-28T15:17:09.990Z,8.77
2022-09-28T15:19:34.223Z,10.93
2022-09-28T15:21:58.767Z,10.05
2022-09-28T15:24:40.647Z,9.73
2022-09-28T15:27:04.884Z,9.15
2022-09-28T15:29:31.324Z,15.20
2022-09-28T15:31:54.828Z,8.45
2022-09-28T15:34:48.807Z,9.37
2022-09-28T15:37:13.438Z,7.60
2022-09-28T15:41:59.990Z,11.30
2022-09-28T15:44:30.481Z,20.85
2022-09-28T15:47:06.468Z,14.45
2022-09-28T15:49:38.137Z,9.27
2022-09-28T15:52:03.075Z,15.10
2022-09-28T15:54:29.143Z,10.45
2022-09-28T15:56:53.637Z,11.05
2022-09-28T16:01:43.210Z,14.98
2022-09-28T16:04:37.512Z,11.83
2022-09-28T16:07:06.653Z,18.90
2022-09-28T16:09:40.304Z,12.43
2022-09-28T16:12:10.984Z,13.48
2022-09-28T16:14:34.143Z,15.43
2022-09-28T16:17:00.426Z,21.98
2022-09-28T16:19:24.573Z,18.83
2022-09-28T16:21:48.210Z,18.15
2022-09-28T16:24:20.054Z,19.03
2022-09-28T16:26:44.689Z,20.75
2022-09-28T16:31:34.490Z,20.63
2022-09-28T16:33:59.609Z,24.58
2022-09-28T16:36:23.157Z,21.13
2022-09-28T16:38:46.364Z,28.42
2022-09-28T16:41:09.686Z,20.50
2022-09-28T16:43:36.627Z,20.30
2022-09-28T16:46:00.841Z,32.75
2022-09-28T16:48:24.601Z,22.73
2022-09-28T16:50:47.832Z,32.27
2022-09-28T16:53:31.665Z,39.22
2022-09-28T16:55:54.926Z,33.65
2022-09-28T16:58:18.672Z,32.15
2022-09-28T17:00:45.768Z,22.55
2022-09-28T17:03:19.000Z,31.15
2022-09-28T17:05:42.843Z,25.63
2022-09-28T17:08:06.497Z,34.70
2022-09-28T17:10:44.834Z,34.95
2022-09-28T17:13:16.789Z,30.88
2022-09-28T17:15:40.209Z,48.75
2022-09-28T17:18:05.192Z,39.95
2022-09-28T17:20:29.518Z,39.92
2022-09-28T17:22:53.457Z,47.33
2022-09-28T17:25:16.870Z,53.95
2022-09-28T17:27:40.254Z,45.78
2022-09-28T17:30:06.766Z,36.13
2022-09-28T17:32:32.551Z,58.72
2022-09-28T17:35:19.852Z,73.47
2022-09-28T17:37:40.879Z,48.55
2022-09-28T17:40:04.035Z,46.70
2022-09-28T17:42:27.262Z,45.33
2022-09-28T17:44:50.409Z,68.68
2022-09-28T17:47:13.559Z,46.17
2022-09-28T17:49:37.254Z,52.28
2022-09-28T17:52:03.647Z,60.57
2022-09-28T17:54:27.278Z,58.88
2022-09-28T17:56:50.429Z,54.10
2022-09-28T17:59:14.759Z,54.55
2022-09-28T18:01:39.711Z,51.95
2022-09-28T18:04:03.618Z,42.42
2022-09-28T18:06:26.802Z,44.73
2022-09-28T18:08:51.422Z,47.17
2022-09-28T18:13:37.544Z,53.35
2022-09-28T18:16:00.901Z,39.72
2022-09-28T18:18:24.161Z,43.83
2022-09-28T18:20:47.385Z,68.03
2022-09-28T18:23:10.570Z,71.78
2022-09-28T18:25:35.214Z,46.90
2022-09-28T18:28:00.239Z,60.95
2022-09-28T18:30:23.471Z,58.38
2022-09-28T18:32:46.760Z,52.25
2022-09-28T18:35:11.530Z,59.35
2022-09-28T18:37:37.493Z,52.75
2022-09-28T18:40:00.755Z,45.17
2022-09-28T18:42:25.464Z,51.60
2022-09-28T18:44:48.614Z,43.55
2022-09-28T18:47:13.647Z,57.97
2022-09-28T18:49:36.788Z,49.38
2022-09-28T18:52:00.101Z,55.80
2022-09-28T18:54:24.620Z,33.10
2022-09-28T18:59:12.619Z,36.28
2022-09-28T19:01:36.632Z,37.60
2022-09-28T19:04:00.700Z,38.25
2022-09-28T19:06:24.038Z,41.95
2022-09-28T19:08:52.840Z,41.13
2022-09-28T19:11:16.675Z,48.35
2022-09-28T19:13:39.902Z,42.63
2022-09-28T19:16:09.724Z,34.45
2022-09-28T19:18:33.017Z,35.67
2022-09-28T19:20:56.234Z,35.22
2022-09-28T19:23:19.560Z,38.97
2022-09-28T19:25:42.895Z,41.08
2022-09-28T19:28:06.124Z,46.45
2022-09-28T19:30:29.523Z,34.17
2022-09-28T19:32:54.073Z,26.75
2022-09-28T19:37:40.414Z,33.28
2022-09-28T19:40:03.951Z,50.80
2022-09-28T19:42:27.123Z,33.92
2022-09-28T19:44:51.063Z,35.63
2022-09-28T19:47:14.229Z,35.65
2022-09-28T19:49:39.626Z,33.78
2022-09-28T19:52:18.204Z,30.48
2022-09-28T19:54:43.963Z,26.65
2022-09-28T19:57:08.572Z,30.27
2022-09-28T19:59:32.024Z,56.70
2022-09-28T20:01:56.399Z,37.15
2022-09-28T20:04:22.892Z,22.15
2022-09-28T20:06:50.149Z,24.02
2022-09-28T20:09:13.308Z,19.35
2022-09-28T20:11:36.482Z,21.83
2022-09-28T20:14:00.926Z,16.48
2022-09-28T20:16:24.577Z,16.80
2022-09-28T20:18:50.221Z,29.30
2022-09-28T20:21:17.193Z,16.52
2022-09-28T20:23:44.591Z,19.65
2022-09-28T20:26:09.185Z,28.42
2022-09-28T20:28:32.889Z,17.60
2022-09-28T20:30:57.335Z,27.40
2022-09-28T20:35:52.284Z,20.60
2022-09-28T20:38:15.512Z,23.85
2022-09-28T20:40:40.278Z,25.25
2022-09-28T20:43:03.539Z,18.23
2022-09-28T20:45:26.646Z,16.48
2022-09-28T20:47:49.847Z,19.35
2022-09-28T20:50:12.967Z,20.35
2022-09-28T20:52:36.141Z,20.45
2022-09-28T20:54:59.501Z,28.88
2022-09-28T20:57:24.586Z,17.08
2022-09-28T20:59:52.292Z,15.73
2022-09-28T21:02:18.283Z,20.20
2022-09-28T21:04:41.611Z,14.23
2022-09-28T21:07:04.734Z,16.75
2022-09-28T21:09:30.078Z,14.63
2022-09-28T21:11:53.254Z,18.23
2022-09-28T21:14:18.604Z,19.23
2022-09-28T21:16:41.786Z,18.48
2022-09-28T21:19:05.191Z,12.48
2022-09-28T21:21:28.392Z,21.58
2022-09-28T21:23:53.226Z,16.83
2022-09-28T21:26:24.766Z,18.05
2022-09-28T21:28:47.967Z,15.95
2022-09-28T21:31:12.705Z,16.52
2022-09-28T21:33:36.117Z,20.92
2022-09-28T21:36:01.719Z,13.05
2022-09-28T21:38:24.855Z,20.20
2022-09-28T21:40:48.528Z,19.30
2022-09-28T21:43:11.711Z,15.40
2022-09-28T21:45:34.898Z,11.18
2022-09-28T21:47:59.581Z,13.70
2022-09-28T21:50:23.075Z,23.50
2022-09-28T21:52:46.209Z,15.80
2022-09-28T21:55:10.530Z,19.17
2022-09-28T21:57:33.776Z,15.60
2022-09-28T21:59:56.945Z,14.15
2022-09-28T22:02:21.607Z,15.93
2022-09-28T22:04:46.146Z,11.48
2022-09-28T22:07:09.362Z,14.52
2022-09-28T22:09:32.518Z,13.82
2022-09-28T22:11:55.739Z,22.20
2022-09-28T22:14:18.882Z,13.98
2022-09-28T22:16:42.281Z,22.65
2022-09-28T22:19:05.446Z,14.15
2022-09-28T22:21:31.885Z,17.60
2022-09-28T22:23:55.111Z,13.63
2022-09-28T22:26:19.625Z,14.30
2022-09-28T22:31:08.931Z,16.35
2022-09-28T22:33:32.250Z,11.60
2022-09-28T22:35:55.475Z,12.05
2022-09-28T22:38:20.285Z,15.43
2022-09-28T22:40:43.751Z,17.70
2022-09-28T22:43:07.098Z,23.20
2022-09-28T22:45:30.237Z,12.50
2022-09-28T22:47:53.456Z,22.42
2022-09-28T22:50:16.653Z,31.10
2022-09-28T22:52:39.829Z,19.33
2022-09-28T22:55:04.696Z,19.90
2022-09-28T22:57:27.856Z,13.98
2022-09-28T22:59:51.028Z,15.20
2022-09-28T23:02:14.214Z,17.02
2022-09-28T23:04:37.394Z,24.08
2022-09-28T23:07:00.543Z,19.77
2022-09-28T23:09:23.698Z,17.90
2022-09-28T23:11:48.252Z,10.57
2022-09-28T23:14:12.101Z,10.18
2022-09-28T23:16:35.258Z,21.60
2022-09-28T23:18:58.690Z,23.25
2022-09-28T23:21:22.660Z,11.63
2022-09-28T23:23:45.872Z,15.25
2022-09-28T23:26:12.848Z,12.93
2022-09-28T23:28:37.413Z,15.40
2022-09-28T23:33:31.426Z,15.45
2022-09-28T23:35:54.614Z,13.73
2022-09-28T23:38:18.807Z,13.75
2022-09-28T23:40:42.079Z,17.33
2022-09-28T23:43:05.286Z,20.67
2022-09-28T23:45:29.916Z,22.27
2022-09-28T23:50:15.961Z,24.33
2022-09-28T23:52:39.290Z,14.10
2022-09-28T23:55:02.493Z,18.10
2022-09-28T23:57:25.631Z,25.48
2022-09-28T23:59:48.901Z,21.90
